Flight Track Log - Related Links

Times and Time Zones

All times are in EDT time to prevent confusion due to time zone crossing. See the EJA646 flight status page for this flight to view local times or setup timezone preferences in your user account.

Time Position Orientation Groundspeed Altitude Reporting Facility
EDT Latitude Longitude Course Direction KTS MPH feet Rate Location/Type
Mon 11:13:00 AM 42.1000 -87.9000 351° North 153 176 1,600  Level Chicago TRACON
Mon 11:14:45 AM 42.1497 -87.9111 351° North 224 258 5,100 2,205 Climbing Chicago Center
Mon 11:15:46 AM 42.1272 -87.8422 114° Southeast 253 291 7,700 2,146 Climbing Chicago Center
Mon 11:16:48 AM 42.0711 -87.8950 215° Southwest 265 305 9,500 1,839 Climbing Chicago Center
Mon 11:17:50 AM 41.9978 -87.9017 184° South 272 313 11,500 1,951 Climbing Chicago Center
Mon 11:18:51 AM 41.9181 -87.8908 174° South 286 329 13,500 2,098 Climbing Chicago Center
Mon 11:19:53 AM 41.8336 -87.8803 175° South 301 346 15,800 2,371 Climbing Chicago Center
Mon 11:20:55 AM 41.7289 -87.8644 174° South 313 360 18,400 2,488 Climbing Chicago Center
Mon 11:21:56 AM 41.6411 -87.8625 179° South 314 361 20,900 2,390 Climbing Chicago Center
Mon 11:22:58 AM 41.5456 -87.8603 179° South 332 382 23,300 2,146 Climbing Chicago Center
Mon 11:23:59 AM 41.4422 -87.8578 179° South 361 415 25,300 1,951 Climbing Chicago Center
Mon 11:25:01 AM 41.3344 -87.8547 179° South 379 436 27,300 1,935 Climbing Chicago Center
Mon 11:26:03 AM 41.2242 -87.8511 179° South 391 450 29,300 1,951 Climbing Chicago Center
Mon 11:27:04 AM 41.1133 -87.8483 179° South 395 455 31,300 1,951 Climbing Chicago Center
Mon 11:28:06 AM 41.0042 -87.8456 179° South 395 455 33,300 1,306 Climbing Chicago Center
Mon 11:29:08 AM 40.8950 -87.8411 178° South 393 452 34,000 341 Climbing Chicago Center
Mon 11:30:09 AM 40.7533 -87.8378 179° South 421 484 34,000  Level Chicago Center
Mon 11:31:11 AM 40.6389 -87.8339 179° South 417 480 34,000  Level Chicago Center
Mon 11:32:13 AM 40.5269 -87.8325 179° South 405 466 34,000  Level Chicago Center
Mon 11:33:14 AM 40.4150 -87.8306 179° South 402 463 34,000  Level Chicago Center
Mon 11:33:38 AM 40.3714 -87.8250 174° South 406 467 34,000  Level Indianapolis Center
Mon 11:34:39 AM 40.2564 -87.8194 178° South 408 470 34,000  Level Indianapolis Center
Mon 11:35:42 AM 40.1386 -87.8175 179° South 414 476 34,000  Level Indianapolis Center
Mon 11:36:43 AM 40.0208 -87.8175 180° South 419 482 34,000  Level Indianapolis Center
Mon 11:37:44 AM 39.8792 -87.8128 179° South 421 484 34,000  Level Indianapolis Center
Mon 11:38:46 AM 39.7619 -87.8078 178° South 421 484 34,000  Level Indianapolis Center
Mon 11:39:48 AM 39.6444 -87.8044 179° South 421 484 34,000  Level Indianapolis Center
Mon 11:40:49 AM 39.5261 -87.8028 179° South 423 487 34,000  Level Indianapolis Center
Mon 11:41:51 AM 39.4083 -87.8000 179° South 423 487 34,000  Level Indianapolis Center
Mon 11:42:53 AM 39.2936 -87.7956 178° South 415 478 34,000 -244 Level Indianapolis Center
Mon 11:43:54 AM 39.1772 -87.7947 180° South 416 479 33,500 -439 Descending Indianapolis Center
Mon 11:44:56 AM 39.0597 -87.7900 178° South 420 483 33,100 -244 Descending Indianapolis Center
Mon 11:45:57 AM 38.9444 -87.7878 179° South 416 479 33,000 -49 Descending Indianapolis Center
Mon 11:46:59 AM 38.8078 -87.7839 179° South 411 473 33,000  Level Indianapolis Center
Mon 11:48:01 AM 38.6894 -87.7817 179° South 419 482 33,000 -195 Level Indianapolis Center
Mon 11:49:02 AM 38.5700 -87.7778 179° South 428 493 32,600 -683 Descending Indianapolis Center
Mon 11:50:04 AM 38.4514 -87.7750 179° South 428 493 31,600 -968 Descending Indianapolis Center
Mon 11:51:06 AM 38.3308 -87.7714 179° South 432 497 30,600 -780 Descending Indianapolis Center
Mon 11:52:07 AM 38.2119 -87.7703 180° South 429 494 30,000 -780 Descending Indianapolis Center
Mon 11:53:09 AM 38.0939 -87.7661 178° South 427 491 29,000 -1,113 Descending Indianapolis Center
Mon 11:54:11 AM 37.9544 -87.7606 178° South 420 483 27,700 -1,171 Descending Indianapolis Center
Mon 11:55:12 AM 37.8453 -87.6872 152° Southeast 445 512 26,600 -1,024 Descending Indianapolis Center
Mon 11:56:14 AM 37.7542 -87.6072 145° Southeast 446 513 25,600 -1,122 Descending Indianapolis Center
Mon 11:57:15 AM 37.6336 -87.4997 145° Southeast 448 516 24,300 -1,125 Descending Indianapolis Center
Mon 11:57:34 AM 37.6131 -87.4853 151° Southeast 438 504 24,100 -911 Descending Memphis Center
Mon 11:58:34 AM 37.5131 -87.3947 144° Southeast 446 513 23,100 -550 Descending Memphis Center
Mon 11:59:34 AM 37.4153 -87.3072 145° Southeast 436 502 23,000 -50 Descending Memphis Center
Mon 12:00:34 PM 37.3117 -87.2458 155° Southeast 424 488 23,000  Level Memphis Center
Mon 12:01:34 PM 37.1983 -87.2111 166° South 424 488 23,000 -76 Level Memphis Center
Mon 12:01:53 PM 37.1481 -87.2003 170° South 428 493 22,900 -1,300 Descending Memphis Center
Mon 12:02:34 PM 37.0847 -87.1767 163° South 419 482 21,700 -1,901 Descending Memphis Center
Mon 12:03:34 PM 36.9672 -87.1450 168° South 406 467 19,700 -1,850 Descending Memphis Center
Mon 12:04:34 PM 36.8581 -87.1106 166° South 401 461 18,000 -1,920 Descending Memphis Center
Mon 12:04:49 PM 36.8267 -87.1067 174° South 392 451 17,300 -2,100 Descending Memphis Center
Mon 12:05:34 PM 36.7631 -87.0678 154° Southeast 381 438 15,900 -1,943 Descending Memphis Center
Mon 12:06:34 PM 36.6869 -87.0192 153° Southeast 335 386 13,900 -2,000 Descending Memphis Center
Mon 12:07:34 PM 36.6022 -86.9708 155° Southeast 327 376 11,900 -2,000 Descending Memphis Center
Mon 12:08:34 PM 36.5519 -86.8903 128° Southeast 302 348 9,900 -1,900 Descending Memphis Center
Mon 12:09:34 PM 36.5103 -86.8147 124° Southeast 273 314 8,100 -1,700 Descending Memphis Center
Mon 12:10:34 PM 36.4772 -86.7569 125° Southeast 249 287 6,500 -1,750 Descending Memphis Center
Mon 12:11:34 PM 36.4361 -86.6994 132° Southeast 232 267 4,600 -1,750 Descending Memphis Center
Mon 12:12:34 PM 36.3947 -86.6444 133° Southeast 219 252 3,000 -800 Descending Memphis Center
Mon 12:13:34 PM 36.3581 -86.5972 134° Southeast 197 227 3,000  Level Memphis Center
Mon 12:14:34 PM 36.3081 -86.6022 185° South 155 178 3,000  Level Memphis Center
Mon 12:15:34 PM 36.2567 -86.6225 198° South 182 209 3,000 -300 Level Memphis Center
Mon 12:16:34 PM 36.2094 -86.6453 201° Southwest 187 215 2,400 -800 Descending Memphis Center
Mon 12:17:34 PM 36.1639 -86.6628 197° South 187 215 1,400 -850 Descending Memphis Center
Mon 12:18:34 PM 36.1311 -86.6769 199° South 152 175 700 -350 Descending Memphis Center
Mon 12:19:34 PM 36.0878 -86.6919 196° South 152 175 700  Level Memphis Center
Mon 12:21:00 PM 36.1167 -86.6667 22° Northeast  Level FlightAware Approximate
Mon 12:28:00 PM 36.1245 -86.6782 22° Northeast  Level Estimated
Mon 12:29:00 PM 36.1245 -86.6782 22° Northeast  Level Estimated
Mon 12:30:00 PM 36.1245 -86.6782 22° Northeast  Level Estimated
Mon 12:31:00 PM 36.1245 -86.6782 22° Northeast  Level Estimated
Mon 12:32:00 PM 36.1245 -86.6782 22° Northeast  Level Estimated
Mon 12:33:00 PM 36.1245 -86.6782 22° Northeast  Level Estimated
Mon 12:34:00 PM 36.1245 -86.6782 22° Northeast  Level Estimated
Mon 12:35:00 PM 36.1245 -86.6782 22° Northeast  Level Estimated
Mon 12:36:00 PM 36.1245 -86.6782 22° Northeast  Level Estimated

Login

Don't have an account? Register now (free) for customized features, flight alerts, and more!